Pagrindinis puslapis
METAR-TAF:

METAR-TAF

Oro uostai :

Izmiras, Turkija

platuma: 38-30N, ilguma: 027-01E, Aukštis: 5 m

Dabartinis oras

Ataskaita buvo paskelbta 8 valandos ir 31 minutes, ne 18:41 UTC
Vėjas 7 kt iš Šiaurės/Šiaurės Vakarų, svyruoja nuo Vakarų/Šiaurės Vakarų ir Šiaurės
Temperatūra 11°C
Drėgmė 71%
Slėgis 1012 hPa
Matomumas 10 km arba daugiau
Mažai debesys ne aukštis 2000 ft, Liūtiniai kamuoliniai debesys.
Išsisklaidę debesys ne aukštis 3500 ft

METAR: LTBL 301841Z 33007KT 290V350 9999 FEW020CB SCT035 11/06 Q1012 RETSRA NOSIG RMK RWY17 33006KT

Laikas: 06:12 (03:12 UTC)

Prognozė

Ataskaita buvo paskelbta 1 valandą ir 32 minutes, ne 01:40 UTC
Prognozė galioja nuo 01 metu 03 UTC su 01 metu 12 UTC
Vėjas 2 kt nuo kintamojo kryptimis
Matomumas 10 km arba daugiau
Išsisklaidę debesys ne aukštis 3500 ft

TAF: LTBL 010140Z 0103/0112 VRB02KT 9999 SCT035

Orai ataskaitas ir orų prognozės (METAR, TAF).

turimą stotys yra geltonos ir raudonos taškus žemėlapyje.

Perkelti pele per norėdami pamatyti stoties vardą.

Tada spustelėkite, norėdami matyti oro stebėjimo ir prognozės.

Norėdami pakeisti žemėlapį: spustelėkite ant žalios mygtukų su juodo kryžiaus žemyn,; žalią mygtuką su brūkšneliu, jei norite nutolinti; arba žalių rodyklių gretimoms žemėlapius.


METAR-TAF: